Time;durP1;ratioP1;P1;durP2;ratioP2;P2;SDS_P1;SDS_P2;PMS_P1;PMS_P2;Temp;Humidity;BMP_temperature;BMP_pressure;BME280_temperature;BME280_humidity;BME280_pressure;Samples;Min_cycle;Max_cycle;Signal;HPM_P1;HPM_P2
2022/09/13 07:25:00;;;;;;;6.90;2.63;;;;;;;18.95;63.41;96137.91;2085322;28;20563;-60
2022/09/13 07:26:04;;;;;;;14.93;2.33;;;;;;;19.32;62.41;96149.72;2081971;28;20220;-61
2022/09/13 07:27:05;;;;;;;9.30;2.22;;;;;;;19.47;62.27;96147.53;2080451;28;20315;-61
2022/09/13 07:28:07;;;;;;;3.63;1.90;;;;;;;19.69;61.99;96154.41;2077253;28;20307;-62
2022/09/13 07:29:12;;;;;;;5.20;2.50;;;;;;;19.36;63.60;96151.13;2070792;28;20244;-61
2022/09/13 07:39:26;;;;;;;9.18;1.65;;;;;;;21.15;59.72;96171.16;2091051;28;20568;-61
2022/09/13 07:40:28;;;;;;;10.30;1.75;;;;;;;21.92;58.33;96173.59;2090521;28;20378;-61
2022/09/13 07:41:31;;;;;;;21.67;2.00;;;;;;;21.73;57.97;96170.06;2089058;28;20330;-61
2022/09/13 07:42:32;;;;;;;4.05;1.95;;;;;;;22.14;56.91;96181.13;2090541;28;20200;-61
2022/09/13 07:43:35;;;;;;;7.25;1.77;;;;;;;22.26;56.30;96176.38;2079281;28;21129;-61
2022/09/13 07:44:37;;;;;;;5.72;2.20;;;;;;;21.66;57.81;96176.94;2073939;28;20201;-62
2022/09/13 07:45:40;;;;;;;4.13;2.05;;;;;;;21.25;58.30;96173.78;2074118;28;20650;-61
2022/09/13 07:46:44;;;;;;;5.78;1.92;;;;;;;21.71;57.57;96173.84;2073371;28;20438;-61
2022/09/13 07:47:45;;;;;;;3.90;2.15;;;;;;;21.95;57.49;96171.47;2073631;28;20644;-60
2022/09/13 07:48:48;;;;;;;6.95;2.03;;;;;;;22.17;56.51;96172.00;2070111;28;20256;-61
2022/09/13 07:49:50;;;;;;;3.65;2.40;;;;;;;20.85;59.75;96171.28;2071793;28;20327;-61
2022/09/13 07:51:15;;;;;;;6.13;2.45;;;;;;;21.52;58.81;96172.94;2070570;28;20664;-61
2022/09/13 07:52:17;;;;;;;3.83;2.15;;;;;;;21.16;59.60;96175.50;2068130;28;20244;-61
2022/09/13 08:00:24;;;;;;;9.82;2.47;;;;;;;22.05;57.50;96152.75;2101573;27;20547;-61
2022/09/13 08:01:33;;;;;;;13.05;2.60;;;;;;;21.91;57.18;96153.31;2098411;28;20227;-61
2022/09/13 08:02:36;;;;;;;7.05;2.20;;;;;;;21.85;58.14;96152.94;2099817;28;20500;-61
2022/09/13 08:03:37;;;;;;;11.00;2.15;;;;;;;21.12;60.91;96150.25;2091791;28;20259;-61
2022/09/13 08:04:39;;;;;;;17.40;2.60;;;;;;;21.12;61.19;96143.09;2089613;28;20207;-61
2022/09/13 08:05:40;;;;;;;15.13;2.40;;;;;;;21.12;61.24;96137.78;2091559;28;20886;-61
2022/09/13 08:06:42;;;;;;;33.75;3.78;;;;;;;21.37;60.58;96148.72;2084156;28;20228;-61
2022/09/13 08:14:27;;;;;;;15.98;2.88;;;;;;;21.62;60.19;96133.94;2092362;27;20570;-61
2022/09/13 08:15:28;;;;;;;10.50;1.90;;;;;;;21.83;59.39;96154.06;2087301;28;20197;-61
2022/09/13 08:16:30;;;;;;;9.50;2.55;;;;;;;21.98;59.12;96152.53;2087446;28;20188;-61
2022/09/13 08:17:32;;;;;;;12.88;2.28;;;;;;;22.12;58.93;96145.03;2087909;28;20238;-61
2022/09/13 08:18:33;;;;;;;11.32;1.75;;;;;;;22.26;58.95;96159.59;2083359;28;20247;-61
2022/09/13 08:19:34;;;;;;;10.18;2.50;;;;;;;22.32;58.10;96158.97;2081537;28;20688;-61
2022/09/13 08:20:37;;;;;;;7.55;2.20;;;;;;;22.25;58.85;96168.56;2082894;28;20228;-61
2022/09/13 08:21:40;;;;;;;5.28;1.83;;;;;;;22.26;58.84;96165.75;2083095;28;20238;-61
2022/09/13 08:22:42;;;;;;;8.07;2.20;;;;;;;22.38;58.71;96163.72;2080030;28;20193;-61
2022/09/13 08:23:44;;;;;;;6.20;1.30;;;;;;;22.66;57.63;96160.94;2072966;28;20315;-61
2022/09/13 08:24:45;;;;;;;6.28;1.92;;;;;;;23.18;56.59;96157.44;2072517;28;20200;-61
2022/09/13 08:25:47;;;;;;;7.38;2.10;;;;;;;23.36;55.52;96161.84;2073877;28;20295;-63
2022/09/13 08:26:50;;;;;;;9.02;2.40;;;;;;;23.72;54.93;96164.28;2074043;28;20208;-63
2022/09/13 08:27:52;;;;;;;7.30;1.90;;;;;;;24.11;53.82;96161.91;2069379;28;20288;-63
2022/09/13 08:29:01;;;;;;;6.57;2.00;;;;;;;24.40;52.76;96160.56;2067475;28;20657;-64
2022/09/13 08:30:04;;;;;;;8.18;1.50;;;;;;;24.29;52.47;96150.25;2070945;28;20229;-63
2022/09/13 08:31:12;;;;;;;6.15;2.47;;;;;;;24.24;52.34;96137.41;2069993;28;20202;-64
2022/09/13 08:32:14;;;;;;;8.13;2.10;;;;;;;24.26;52.89;96148.75;2068026;28;20205;-63
2022/09/13 08:33:15;;;;;;;8.40;1.98;;;;;;;24.54;52.53;96140.38;2068739;28;20290;-64
2022/09/13 08:34:17;;;;;;;6.68;1.80;;;;;;;24.63;51.70;96143.88;2071123;28;20308;-63
2022/09/13 08:35:18;;;;;;;15.60;2.10;;;;;;;24.91;50.65;96143.53;2070043;28;20591;-64
2022/09/13 08:36:22;;;;;;;9.48;1.85;;;;;;;24.77;51.47;96143.25;2072935;28;20288;-63
2022/09/13 08:37:24;;;;;;;6.10;1.70;;;;;;;24.02;51.82;96132.72;2071436;28;20205;-63
2022/09/13 08:38:26;;;;;;;7.93;1.60;;;;;;;23.92;52.81;96141.72;2069910;28;20224;-64
2022/09/13 08:39:27;;;;;;;8.32;1.70;;;;;;;24.00;53.31;96143.56;2065760;28;20286;-64
2022/09/13 08:40:37;;;;;;;5.97;2.05;;;;;;;24.06;52.90;96158.06;2074115;28;20292;-63
2022/09/13 08:41:38;;;;;;;14.60;2.05;;;;;;;23.90;52.55;96157.00;2078073;28;20283;-63
2022/09/13 08:42:43;;;;;;;5.50;2.08;;;;;;;23.57;53.93;96161.44;2070876;28;20292;-64
2022/09/13 08:49:19;;;;;;;8.15;1.30;;;;;;;24.22;51.68;96143.91;2090063;28;21044;-61
2022/09/13 08:50:29;;;;;;;12.40;1.38;;;;;;;24.75;51.50;96152.41;2088787;28;20540;-61
2022/09/13 08:51:39;;;;;;;11.88;1.75;;;;;;;25.02;49.75;96150.34;2089115;28;20238;-61
2022/09/13 08:52:47;;;;;;;12.60;1.58;;;;;;;25.13;48.99;96155.34;2088484;28;20311;-62
2022/09/13 08:53:49;;;;;;;9.18;1.60;;;;;;;24.94;50.04;96153.88;2083245;28;20264;-62
2022/09/13 08:54:52;;;;;;;9.63;1.70;;;;;;;24.90;50.54;96136.50;2082218;28;20229;-62
2022/09/13 08:56:28;;;;;;;10.68;1.10;;;;;;;24.43;49.79;96148.75;2081354;28;20200;-64
2022/09/13 08:57:49;;;;;;;10.10;1.70;;;;;;;24.92;49.45;96147.88;2083775;28;20292;-62
2022/09/13 08:58:50;;;;;;;7.85;1.60;;;;;;;24.72;48.74;96142.91;2080946;28;20252;-62
2022/09/13 09:00:09;;;;;;;1.75;1.20;;;;;;;24.70;47.17;96147.56;2082175;28;20322;-62
2022/09/13 09:01:10;;;;;;;5.72;1.35;;;;;;;24.71;47.59;96138.56;2079964;28;20334;-62
2022/09/13 09:02:26;;;;;;;2.70;1.10;;;;;;;24.79;47.81;96145.72;2079981;28;20199;-62
2022/09/13 09:03:41;;;;;;;9.70;1.30;;;;;;;24.08;48.92;96153.41;2080204;28;20224;-63
2022/09/13 09:05:02;;;;;;;2.40;0.95;;;;;;;24.82;45.52;96140.03;2082044;28;20199;-62
2022/09/13 09:06:13;;;;;;;1.70;1.00;;;;;;;25.34;44.81;96136.03;2082840;28;20223;-64
2022/09/13 09:07:28;;;;;;;1.75;1.00;;;;;;;25.87;44.08;96140.81;2081299;28;20809;-64
2022/09/13 09:08:37;;;;;;;3.83;0.82;;;;;;;26.18;43.60;96145.31;2082049;28;20247;-64
2022/09/13 09:09:44;;;;;;;1.80;1.00;;;;;;;26.34;43.31;96147.03;2082190;28;20196;-64
2022/09/13 09:10:49;;;;;;;12.40;0.93;;;;;;;26.51;43.33;96143.22;2081169;28;20287;-63
2022/09/13 09:12:01;;;;;;;3.38;0.98;;;;;;;26.79;41.73;96144.47;2081988;28;20706;-63
2022/09/13 09:13:08;;;;;;;3.63;0.90;;;;;;;26.50;41.95;96136.19;2078343;28;20288;-64
2022/09/13 09:14:24;;;;;;;3.33;0.93;;;;;;;26.70;40.37;96147.22;2085486;28;20663;-64
2022/09/13 09:15:34;;;;;;;3.05;0.95;;;;;;;27.07;40.25;96155.44;2088218;28;20247;-63
2022/09/13 09:16:51;;;;;;;3.65;0.93;;;;;;;26.94;40.73;96157.91;2081118;28;20835;-63
2022/09/13 09:18:11;;;;;;;2.65;0.80;;;;;;;26.79;40.95;96150.69;2079398;28;20209;-62
2022/09/13 09:19:19;;;;;;;3.08;1.30;;;;;;;26.51;41.89;96147.72;2071973;28;20679;-63
2022/09/13 09:20:26;;;;;;;3.50;1.00;;;;;;;26.30;41.86;96148.41;2073996;28;20208;-63
2022/09/13 09:21:29;;;;;;;2.67;0.80;;;;;;;26.18;41.30;96130.09;2073078;28;20352;-63
2022/09/13 09:22:34;;;;;;;4.90;0.95;;;;;;;26.31;41.85;96139.34;2075048;28;20652;-65
2022/09/13 09:23:52;;;;;;;2.35;0.90;;;;;;;26.35;41.20;96130.78;2074645;28;20724;-65
2022/09/13 09:24:55;;;;;;;2.15;0.80;;;;;;;25.86;42.88;96145.31;2075750;28;20279;-65
2022/09/13 09:26:15;;;;;;;4.80;1.15;;;;;;;26.24;42.25;96147.28;2070905;28;20225;-66
2022/09/13 09:27:18;;;;;;;18.88;1.02;;;;;;;25.82;42.49;96138.66;2070224;28;20287;-65
2022/09/13 09:28:20;;;;;;;6.63;1.17;;;;;;;26.22;42.16;96144.78;2073277;28;20305;-65
2022/09/13 09:29:25;;;;;;;14.13;1.20;;;;;;;26.80;42.02;96148.84;2075696;28;20213;-65
2022/09/13 09:30:40;;;;;;;7.57;1.10;;;;;;;27.71;39.78;96151.31;2073614;28;20292;-65
2022/09/13 09:32:08;;;;;;;4.10;1.17;;;;;;;27.81;38.77;96146.47;2072436;28;20228;-65
2022/09/13 09:33:24;;;;;;;6.45;0.90;;;;;;;27.94;38.64;96144.97;2073170;28;20288;-65
2022/09/13 09:34:41;;;;;;;12.75;1.30;;;;;;;26.54;40.39;96140.16;2083461;28;20260;-65
2022/09/13 09:36:06;;;;;;;5.95;1.13;;;;;;;25.97;42.02;96149.44;2080171;28;20255;-65
2022/09/13 09:37:15;;;;;;;2.63;0.88;;;;;;;25.53;42.04;96125.97;2065386;28;20289;-65
2022/09/13 09:38:42;;;;;;;13.63;1.35;;;;;;;26.67;40.68;96152.94;2074336;28;20241;-65
2022/09/13 09:39:44;;;;;;;9.55;1.42;;;;;;;26.76;40.84;96159.06;2075072;28;20201;-65
2022/09/13 09:40:45;;;;;;;9.10;1.20;;;;;;;26.95;40.55;96159.56;2076600;28;20193;-65
2022/09/13 09:41:47;;;;;;;11.27;1.30;;;;;;;27.07;40.80;96162.63;2077170;28;20617;-65
2022/09/13 09:42:48;;;;;;;7.32;0.90;;;;;;;27.14;41.05;96169.72;2076610;28;20248;-65
2022/09/13 09:44:15;;;;;;;12.93;1.10;;;;;;;27.35;40.91;96176.19;2073979;28;20313;-65
2022/09/13 09:45:27;;;;;;;4.60;1.20;;;;;;;27.63;40.27;96173.72;2075455;28;20228;-65
2022/09/13 09:46:32;;;;;;;2.00;0.80;;;;;;;27.63;39.67;96179.06;2073403;28;20301;-65
2022/09/13 09:47:45;;;;;;;6.07;1.15;;;;;;;27.93;39.56;96178.19;2073513;28;20197;-65
2022/09/13 09:48:54;;;;;;;8.80;1.10;;;;;;;28.05;38.84;96165.97;2070183;28;20312;-65
2022/09/13 09:50:08;;;;;;;3.60;1.30;;;;;;;27.58;40.02;96178.81;2072423;28;20197;-66
2022/09/13 09:51:13;;;;;;;9.20;1.00;;;;;;;27.63;39.35;96178.22;2075008;28;20289;-65
2022/09/13 09:52:21;;;;;;;2.63;1.00;;;;;;;26.97;40.23;96178.94;2074325;28;20292;-65
2022/09/13 09:53:34;;;;;;;7.05;1.13;;;;;;;26.97;40.57;96176.25;2073414;28;20244;-65
2022/09/13 09:54:38;;;;;;;4.18;1.00;;;;;;;27.22;40.79;96176.84;2075182;28;20210;-65
2022/09/13 09:55:48;;;;;;;1.52;1.00;;;;;;;27.75;39.45;96184.78;2070439;28;20248;-65
2022/09/13 09:56:54;;;;;;;4.93;0.95;;;;;;;28.02;39.07;96174.34;2072804;28;20240;-65
2022/09/13 09:58:23;;;;;;;1.40;0.70;;;;;;;28.28;38.02;96176.50;2073101;28;20228;-65
2022/09/13 09:59:31;;;;;;;2.10;0.93;;;;;;;29.16;37.47;96178.06;2073031;28;20206;-65
2022/09/13 10:00:49;;;;;;;4.43;1.00;;;;;;;29.05;37.33;96187.53;2067166;28;20230;-65
2022/09/13 10:01:50;;;;;;;2.75;1.00;;;;;;;29.48;36.21;96179.34;2065881;28;20228;-65
2022/09/13 10:02:56;;;;;;;8.15;1.00;;;;;;;29.87;35.74;96179.69;2068452;28;20207;-65
2022/09/13 10:04:03;;;;;;;5.53;0.88;;;;;;;30.29;34.97;96180.44;2068337;28;20221;-65
2022/09/13 10:05:05;;;;;;;5.40;1.23;;;;;;;29.52;35.99;96171.66;2066571;28;20229;-66
2022/09/13 10:06:13;;;;;;;3.08;1.13;;;;;;;29.83;35.50;96173.06;2066335;28;20289;-65
2022/09/13 10:07:25;;;;;;;3.20;1.02;;;;;;;30.50;35.07;96175.09;2068901;28;20236;-65
2022/09/13 10:08:30;;;;;;;2.90;1.08;;;;;;;30.56;34.61;96180.53;2067424;28;20226;-65
2022/09/13 10:09:32;;;;;;;2.55;1.00;;;;;;;30.12;35.27;96154.97;2069182;28;20252;-65
2022/09/13 10:10:36;;;;;;;3.28;0.90;;;;;;;30.25;35.16;96176.50;2069379;28;20202;-65
2022/09/13 10:11:56;;;;;;;2.38;1.10;;;;;;;30.54;34.73;96171.81;2069231;28;20301;-65
2022/09/13 10:12:58;;;;;;;2.67;1.17;;;;;;;30.74;34.52;96166.44;2067862;28;20730;-65
2022/09/13 10:14:02;;;;;;;2.88;0.80;;;;;;;29.52;35.24;96166.28;2069372;28;20285;-66
2022/09/13 10:15:16;;;;;;;4.05;0.98;;;;;;;29.14;35.73;96169.34;2064253;28;20288;-65
2022/09/13 10:16:25;;;;;;;2.67;0.90;;;;;;;29.78;35.60;96154.81;2064010;28;20241;-65
2022/09/13 10:17:27;;;;;;;3.22;0.80;;;;;;;30.97;33.74;96140.91;2066887;28;20244;-65
2022/09/13 10:18:31;;;;;;;3.15;1.00;;;;;;;30.27;34.50;96160.13;2067855;28;20304;-65
2022/09/13 10:20:00;;;;;;;1.60;0.90;;;;;;;30.89;34.29;96155.44;2066047;28;20392;-65
2022/09/13 10:21:25;;;;;;;8.32;0.90;;;;;;;31.26;33.97;96158.50;2067810;28;20240;-65
2022/09/13 10:22:29;;;;;;;3.03;0.90;;;;;;;31.13;33.58;96163.09;2066272;28;20292;-65
2022/09/13 10:23:35;;;;;;;5.53;0.90;;;;;;;31.02;34.03;96164.53;2067591;28;20226;-65
2022/09/13 10:24:37;;;;;;;3.90;0.80;;;;;;;31.89;33.46;96161.63;2068643;28;20225;-65
2022/09/13 10:25:41;;;;;;;5.07;1.00;;;;;;;32.07;33.54;96171.69;2065317;28;20268;-65
2022/09/13 10:26:48;;;;;;;5.23;0.93;;;;;;;32.81;32.18;96169.38;2064511;28;20442;-65
2022/09/13 10:27:55;;;;;;;1.10;0.70;;;;;;;32.08;32.34;96179.56;2068612;28;20463;-66
2022/09/13 10:29:12;;;;;;;3.33;0.80;;;;;;;32.63;31.04;96158.47;2065400;28;21014;-65
2022/09/13 10:30:38;;;;;;;1.77;0.80;;;;;;;33.15;30.17;96172.56;2066011;28;20458;-65
2022/09/13 10:31:43;;;;;;;2.70;1.00;;;;;;;33.29;30.17;96172.47;2066245;28;20853;-65
2022/09/13 10:32:54;;;;;;;1.60;0.90;;;;;;;32.66;30.72;96174.22;2066096;28;20918;-66
2022/09/13 10:34:00;;;;;;;1.80;0.93;;;;;;;32.83;30.34;96182.66;2065222;28;20455;-65
2022/09/13 10:35:16;;;;;;;3.63;0.90;;;;;;;33.07;30.16;96174.78;2066357;28;20462;-66
2022/09/13 10:36:23;;;;;;;9.33;1.00;;;;;;;32.79;29.78;96181.47;2067379;28;20430;-65
2022/09/13 10:37:44;;;;;;;2.33;0.90;;;;;;;32.94;29.21;96163.03;2067177;28;20427;-66
2022/09/13 10:39:00;;;;;;;3.47;1.37;;;;;;;32.56;30.17;96170.16;2069136;28;20546;-66
2022/09/13 10:40:08;;;;;;;1.00;0.70;;;;;;;31.53;31.55;96163.00;2069287;28;20458;-66
2022/09/13 10:41:21;;;;;;;5.10;0.80;;;;;;;32.79;29.74;96167.94;2069502;28;20423;-66
2022/09/13 10:42:25;;;;;;;1.77;0.80;;;;;;;32.23;30.72;96160.41;2068295;28;20462;-66
2022/09/13 10:43:30;;;;;;;2.60;0.80;;;;;;;32.45;29.65;96159.25;2065532;28;20470;-66
2022/09/13 10:44:40;;;;;;;3.97;0.70;;;;;;;32.05;29.76;96144.91;2066610;28;20522;-66
2022/09/13 10:45:42;;;;;;;4.50;0.70;;;;;;;29.19;32.12;96140.03;2073742;28;21172;-65
2022/09/13 10:46:48;;;;;;;2.70;0.80;;;;;;;29.23;33.08;96140.47;2073298;28;20914;-65
2022/09/13 10:47:53;;;;;;;2.13;0.83;;;;;;;29.45;33.86;96139.38;2065995;28;20463;-65
2022/09/13 10:48:55;;;;;;;2.43;0.60;;;;;;;29.01;34.46;96137.88;2067879;28;20512;-66
2022/09/13 10:49:58;;;;;;;1.87;0.80;;;;;;;28.98;34.36;96138.28;2068709;28;20981;-66
2022/09/13 10:51:06;;;;;;;0.90;0.60;;;;;;;29.17;34.91;96124.13;2066080;28;20459;-65
2022/09/13 10:52:32;;;;;;;3.00;0.70;;;;;;;29.72;34.51;96138.66;2067290;28;20963;-65
2022/09/13 10:53:35;;;;;;;1.90;0.90;;;;;;;29.95;34.06;96141.03;2064466;28;21136;-66
2022/09/13 10:54:36;;;;;;;1.73;0.67;;;;;;;29.75;33.13;96139.09;2063605;28;20475;-66
2022/09/13 10:55:42;;;;;;;5.60;0.80;;;;;;;29.67;33.63;96147.31;2065606;28;20491;-66
2022/09/13 10:56:44;;;;;;;1.97;0.87;;;;;;;29.53;33.14;96134.88;2067997;28;20478;-65
2022/09/13 10:57:48;;;;;;;2.20;0.80;;;;;;;29.56;32.24;96137.13;2068602;28;20464;-65
2022/09/13 10:58:50;;;;;;;1.93;0.70;;;;;;;29.53;32.73;96146.44;2067389;28;21118;-65
2022/09/13 10:59:53;;;;;;;2.90;0.70;;;;;;;29.45;33.64;96136.69;2068099;28;20994;-66
2022/09/13 11:01:17;;;;;;;1.00;0.60;;;;;;;30.12;31.92;96141.50;2068117;28;20957;-66
2022/09/13 11:02:36;;;;;;;1.87;0.80;;;;;;;30.26;32.50;96150.44;2069770;28;20527;-65
2022/09/13 11:03:40;;;;;;;1.57;0.67;;;;;;;31.16;31.88;96138.41;2065488;28;20490;-65
2022/09/13 11:04:55;;;;;;;3.73;0.80;;;;;;;31.50;30.66;96134.56;2067616;28;20439;-65
2022/09/13 11:06:05;;;;;;;1.53;0.80;;;;;;;31.16;31.24;96147.34;2066574;28;20974;-65
2022/09/13 11:07:12;;;;;;;2.20;0.80;;;;;;;30.92;31.18;96143.41;2069243;28;20471;-65
2022/09/13 11:08:26;;;;;;;2.37;0.70;;;;;;;31.84;30.89;96151.47;2067484;28;20518;-66
2022/09/13 11:09:35;;;;;;;1.00;0.63;;;;;;;32.23;30.09;96148.78;2075278;28;20458;-66
2022/09/13 11:11:07;;;;;;;1.10;0.70;;;;;;;32.13;30.15;96159.22;2072533;28;20510;-65
2022/09/13 11:12:17;;;;;;;2.80;0.67;;;;;;;31.56;29.93;96157.97;2057329;28;20540;-65
2022/09/13 11:13:53;;;;;;;1.30;0.70;;;;;;;30.16;31.48;96149.97;2054277;28;21198;-65
2022/09/13 11:15:14;;;;;;;1.40;0.63;;;;;;;29.89;31.58;96149.91;2065636;28;20515;-65
2022/09/13 11:16:33;;;;;;;1.00;0.60;;;;;;;29.62;31.94;96145.25;2064840;28;20511;-65
2022/09/13 11:18:02;;;;;;;1.80;0.60;;;;;;;29.29;32.16;96150.47;2064343;28;20431;-65
2022/09/13 11:19:19;;;;;;;3.10;0.80;;;;;;;29.83;32.67;96148.00;2064865;28;20475;-65
2022/09/13 11:20:36;;;;;;;1.23;0.70;;;;;;;29.95;33.10;96144.56;2066681;28;20577;-65
2022/09/13 11:22:15;;;;;;;1.20;0.67;;;;;;;30.25;33.13;96148.75;2064347;28;20562;-65
2022/09/13 11:23:36;;;;;;;2.93;0.90;;;;;;;30.23;31.90;96145.44;2067504;28;20434;-65
2022/09/13 11:24:46;;;;;;;1.33;0.70;;;;;;;31.38;31.31;96147.88;2069073;28;21033;-65
2022/09/13 11:26:09;;;;;;;1.67;0.80;;;;;;;31.95;30.09;96144.56;2069968;28;20934;-65
2022/09/13 11:27:34;;;;;;;6.97;1.57;;;;;;;31.00;31.33;96140.47;2067994;28;20957;-66
2022/09/13 11:28:47;;;;;;;1.47;0.80;;;;;;;31.15;30.92;96139.44;2067404;28;21033;-65
2022/09/13 11:30:18;;;;;;;1.07;0.67;;;;;;;32.01;29.90;96154.50;2067361;28;20526;-66
2022/09/13 11:31:31;;;;;;;4.17;1.07;;;;;;;32.31;28.59;96153.09;2064518;28;20481;-65
2022/09/13 11:32:41;;;;;;;2.40;0.70;;;;;;;31.77;29.16;96149.84;2066393;28;20510;-65
2022/09/13 11:33:55;;;;;;;0.90;0.60;;;;;;;31.25;28.52;96146.06;2069595;28;20542;-66
2022/09/13 11:35:24;;;;;;;1.20;0.80;;;;;;;31.93;30.08;96152.03;2065142;28;20559;-65
2022/09/13 11:36:40;;;;;;;2.13;0.80;;;;;;;32.19;29.94;96151.09;2062885;28;20501;-65
2022/09/13 11:37:55;;;;;;;1.30;0.70;;;;;;;32.50;29.80;96152.13;2061675;28;20438;-65
2022/09/13 11:39:28;;;;;;;6.73;0.70;;;;;;;32.66;29.24;96147.22;2063671;28;20565;-65
2022/09/13 11:40:58;;;;;;;2.80;0.70;;;;;;;31.01;30.10;96147.53;2069492;28;20950;-64
2022/09/13 11:42:04;;;;;;;1.40;0.70;;;;;;;30.10;30.83;96141.69;2066714;28;20502;-64
2022/09/13 11:43:16;;;;;;;1.33;0.80;;;;;;;30.28;31.26;96143.81;2067026;28;20518;-64
2022/09/13 11:44:46;;;;;;;2.90;0.70;;;;;;;30.69;29.87;96147.38;2066990;28;20899;-64
2022/09/13 11:46:16;;;;;;;1.10;0.60;;;;;;;31.02;28.03;96151.91;2068017;28;20462;-64
2022/09/13 11:47:47;;;;;;;3.00;0.70;;;;;;;30.69;29.62;96146.53;2066202;28;20529;-64
2022/09/13 11:49:17;;;;;;;2.07;0.70;;;;;;;29.99;30.36;96146.84;2065962;28;20471;-64
2022/09/13 11:50:24;;;;;;;3.20;0.73;;;;;;;29.90;30.93;96154.25;2066074;28;20504;-64
2022/09/13 11:51:33;;;;;;;2.70;0.60;;;;;;;29.91;31.00;96156.75;2067681;28;20428;-65
2022/09/13 11:52:41;;;;;;;2.00;0.80;;;;;;;29.79;31.87;96152.97;2068322;28;20458;-65
2022/09/13 11:54:11;;;;;;;1.27;0.63;;;;;;;29.67;32.30;96144.63;2066684;28;20997;-65
2022/09/13 11:55:22;;;;;;;1.10;0.70;;;;;;;29.44;32.33;96140.41;2058912;28;20908;-65
2022/09/13 11:56:34;;;;;;;2.83;0.83;;;;;;;28.68;33.35;96141.16;2057649;28;20532;-65
2022/09/13 11:57:43;;;;;;;1.50;0.70;;;;;;;28.95;33.12;96135.97;2067489;28;20534;-65
2022/09/13 11:58:50;;;;;;;1.20;0.70;;;;;;;29.37;33.15;96144.94;2065618;28;20547;-65
2022/09/13 12:00:04;;;;;;;1.40;0.70;;;;;;;29.11;34.08;96143.72;2065549;28;20491;-65
2022/09/13 12:01:09;;;;;;;5.03;1.47;;;;;;;28.66;37.96;96149.41;2068862;28;20437;-65
2022/09/13 12:02:39;;;;;;;4.53;0.90;;;;;;;29.65;38.13;96144.84;2066521;28;20983;-65
2022/09/13 12:04:02;;;;;;;1.80;1.20;;;;;;;30.21;38.27;96147.53;2064555;28;20517;-65
2022/09/13 12:05:09;;;;;;;5.23;1.40;;;;;;;29.92;39.27;96147.66;2066192;28;20512;-65
2022/09/13 12:06:35;;;;;;;7.70;1.27;;;;;;;27.96;41.88;96140.22;2067326;28;20432;-65
2022/09/13 12:07:52;;;;;;;3.67;1.13;;;;;;;27.44;41.76;96145.63;2067655;28;20988;-65
2022/09/13 12:09:01;;;;;;;3.13;1.40;;;;;;;28.46;40.84;96134.97;2067447;28;20554;-65
2022/09/13 12:10:16;;;;;;;2.42;1.10;;;;;;;29.22;39.18;96139.66;2066286;28;20234;-67
2022/09/13 12:11:25;;;;;;;2.10;1.00;;;;;;;29.84;38.86;96117.38;2065421;28;20370;-65
2022/09/13 12:12:31;;;;;;;3.57;1.20;;;;;;;30.37;39.06;96133.66;2065728;28;20711;-66
2022/09/13 12:13:55;;;;;;;6.67;0.90;;;;;;;30.77;37.65;96135.53;2066379;28;20494;-66
2022/09/13 12:15:13;;;;;;;2.40;0.97;;;;;;;30.61;36.48;96123.31;2067480;28;20952;-66
2022/09/13 12:16:41;;;;;;;8.17;2.03;;;;;;;30.57;37.63;96130.16;2067122;28;20438;-65
2022/09/13 12:17:50;;;;;;;5.67;1.57;;;;;;;30.55;37.48;96126.84;2065036;28;20444;-64
2022/09/13 12:18:56;;;;;;;6.83;1.40;;;;;;;30.77;36.88;96128.28;2070158;28;20455;-66
2022/09/13 12:20:00;;;;;;;2.00;0.93;;;;;;;30.85;36.12;96123.72;2069310;28;20466;-66
2022/09/13 12:21:11;;;;;;;3.70;1.13;;;;;;;30.69;36.47;96111.50;2068546;28;20530;-66
2022/09/13 12:22:13;;;;;;;3.03;1.50;;;;;;;30.93;35.82;96127.03;2062226;28;20966;-66
2022/09/13 12:23:28;;;;;;;1.83;1.00;;;;;;;31.05;34.58;96127.19;2065038;28;20530;-66
2022/09/13 12:24:35;;;;;;;6.50;1.03;;;;;;;30.37;36.14;96122.88;2066090;28;21236;-66
2022/09/13 12:25:50;;;;;;;3.83;1.10;;;;;;;30.26;37.43;96123.50;2066108;28;20519;-65
2022/09/13 12:26:59;;;;;;;9.33;1.00;;;;;;;30.76;37.22;96123.09;2066427;28;20514;-66
2022/09/13 12:28:26;;;;;;;5.60;1.20;;;;;;;30.94;37.20;96122.44;2066267;28;20490;-64
2022/09/13 12:29:49;;;;;;;3.47;1.43;;;;;;;31.25;36.60;96116.41;2068086;28;20523;-64
2022/09/13 12:30:55;;;;;;;3.73;0.97;;;;;;;30.87;36.65;96113.56;2068455;28;20460;-64
2022/09/13 12:32:08;;;;;;;4.43;1.10;;;;;;;31.03;35.89;96105.03;2068064;28;20498;-64
2022/09/13 12:33:14;;;;;;;2.20;1.10;;;;;;;31.10;36.20;96103.16;2065777;28;20427;-64
2022/09/13 12:34:33;;;;;;;10.37;1.30;;;;;;;31.72;36.22;96116.25;2067328;28;21110;-66
2022/09/13 12:35:44;;;;;;;4.40;1.00;;;;;;;32.08;34.98;96112.06;2068259;28;20459;-66
2022/09/13 12:37:07;;;;;;;6.07;1.20;;;;;;;30.64;37.71;96100.53;2065605;28;20479;-66
2022/09/13 12:38:42;;;;;;;2.60;1.10;;;;;;;31.80;36.04;96098.16;2064406;28;20434;-66
2022/09/13 12:40:22;;;;;;;9.33;1.67;;;;;;;31.02;36.93;96089.91;2063962;28;20519;-66
2022/09/13 12:41:42;;;;;;;15.53;1.10;;;;;;;30.93;35.63;96083.06;2064833;28;20438;-66
2022/09/13 12:43:02;;;;;;;6.50;1.60;;;;;;;30.55;34.36;96073.81;2067169;28;20462;-66
2022/09/13 12:44:35;;;;;;;3.53;1.10;;;;;;;30.48;34.79;96067.59;2065085;28;21050;-65
2022/09/13 12:46:05;;;;;;;9.40;1.17;;;;;;;30.35;35.98;96072.94;2063710;28;20447;-66
2022/09/13 12:47:26;;;;;;;4.80;1.17;;;;;;;32.10;33.78;96073.25;2065428;28;20459;-66
2022/09/13 12:48:43;;;;;;;9.73;1.30;;;;;;;32.61;33.10;96076.78;2064833;28;20559;-66
2022/09/13 12:50:22;;;;;;;6.13;1.40;;;;;;;33.46;32.00;96069.91;2064407;28;20463;-66
2022/09/13 12:51:58;;;;;;;8.07;1.30;;;;;;;32.53;32.31;96072.50;2064965;28;20453;-66
2022/09/13 12:53:06;;;;;;;6.50;1.13;;;;;;;32.13;33.35;96068.25;2063002;28;20522;-66
2022/09/13 12:54:23;;;;;;;8.03;1.20;;;;;;;31.14;34.80;96065.03;2067383;28;20475;-66
2022/09/13 12:55:50;;;;;;;5.20;1.27;;;;;;;30.42;35.29;96063.84;2066568;28;20464;-66
2022/09/13 12:57:15;;;;;;;8.93;1.40;;;;;;;28.81;37.92;96063.38;2066704;28;20534;-66
2022/09/13 12:59:01;;;;;;;13.93;1.37;;;;;;;30.29;34.86;96056.59;2060546;28;20530;-66
2022/09/13 13:00:03;;;;;;;9.10;1.77;;;;;;;30.80;34.34;96056.16;2048742;28;20426;-66
2022/09/13 13:01:15;;;;;;;6.43;1.30;;;;;;;31.40;33.57;96058.66;2063365;28;20833;-66
2022/09/13 13:02:33;;;;;;;18.80;1.40;;;;;;;31.99;33.48;96067.50;2066004;28;20449;-65
2022/09/13 13:03:45;;;;;;;11.47;1.17;;;;;;;32.29;33.50;96063.38;2067129;28;20490;-66
2022/09/13 13:04:52;;;;;;;20.03;1.60;;;;;;;31.96;32.29;96051.75;2066721;28;20438;-66
2022/09/13 13:06:08;;;;;;;2.03;0.97;;;;;;;30.46;33.97;96042.69;2062957;28;20985;-66
2022/09/13 13:07:20;;;;;;;1.80;0.90;;;;;;;31.07;33.81;96060.47;2061559;28;20729;-66
2022/09/13 13:08:21;;;;;;;8.20;1.50;;;;;;;32.10;32.87;96059.75;2062569;28;20519;-66
2022/09/13 13:09:41;;;;;;;2.70;0.90;;;;;;;32.72;31.07;96060.69;2063758;28;20518;-66
2022/09/13 13:10:43;;;;;;;2.37;0.90;;;;;;;30.78;32.97;96051.81;2065754;28;20805;-66
2022/09/13 13:11:46;;;;;;;5.43;0.90;;;;;;;30.92;33.40;96054.47;2067587;28;20436;-64
2022/09/13 13:12:48;;;;;;;11.10;1.17;;;;;;;31.84;32.96;96053.50;2065573;28;20419;-64
2022/09/13 13:14:08;;;;;;;9.27;1.30;;;;;;;32.59;32.37;96043.78;2059524;28;20483;-64
2022/09/13 13:15:16;;;;;;;9.23;1.77;;;;;;;30.99;32.57;96051.75;2062674;28;20479;-63
2022/09/13 13:16:26;;;;;;;7.40;1.03;;;;;;;29.95;34.33;96036.94;2066226;28;20431;-63
2022/09/13 13:17:47;;;;;;;4.23;0.90;;;;;;;31.18;32.56;96048.19;2068076;28;20435;-63
2022/09/13 13:18:51;;;;;;;4.33;1.00;;;;;;;30.47;33.87;96055.13;2065717;28;20753;-63
2022/09/13 13:19:52;;;;;;;3.30;0.90;;;;;;;30.18;33.73;96048.31;2067092;28;20459;-63
2022/09/13 13:20:54;;;;;;;4.40;0.90;;;;;;;29.98;32.97;96043.75;2066070;28;20474;-63
2022/09/13 13:22:34;;;;;;;5.87;1.47;;;;;;;31.22;33.18;96052.13;2066288;28;20511;-63
2022/09/13 13:23:38;;;;;;;4.10;1.03;;;;;;;32.70;31.36;96059.28;2062569;28;20455;-63
2022/09/13 13:24:45;;;;;;;6.23;1.00;;;;;;;33.34;29.78;96051.75;2062793;28;20924;-64
2022/09/13 13:26:06;;;;;;;14.30;1.00;;;;;;;33.44;29.74;96056.59;2063823;28;20585;-63
2022/09/13 13:27:37;;;;;;;2.80;0.80;;;;;;;33.63;30.05;96046.56;2061312;28;20539;-63
2022/09/13 13:28:42;;;;;;;3.83;1.50;;;;;;;33.59;29.53;96047.28;2061302;28;20545;-64